createdAt,value
2023-03-25T00:01:00.981Z,17.94
2023-03-25T00:04:06.576Z,17.94
2023-03-25T00:07:08.602Z,17.94
2023-03-25T00:10:11.734Z,17.88
2023-03-25T00:13:13.802Z,17.88
2023-03-25T00:16:16.547Z,17.94
2023-03-25T00:19:21.387Z,17.88
2023-03-25T00:22:23.785Z,17.88
2023-03-25T00:25:25.849Z,17.88
2023-03-25T00:28:30.848Z,17.88
2023-03-25T00:31:32.922Z,17.88
2023-03-25T00:34:41.671Z,17.88
2023-03-25T00:37:45.779Z,17.81
2023-03-25T00:40:48.577Z,17.88
2023-03-25T00:43:52.382Z,17.81
2023-03-25T00:46:54.688Z,17.81
2023-03-25T00:49:56.672Z,17.81
2023-03-25T00:52:58.716Z,17.81
2023-03-25T00:56:01.329Z,17.81
2023-03-25T00:59:03.764Z,17.81
2023-03-25T01:02:06.894Z,17.75
2023-03-25T01:05:11.300Z,17.75
2023-03-25T01:08:14.700Z,17.75
2023-03-25T01:11:23.474Z,17.75
2023-03-25T01:14:27.666Z,17.75
2023-03-25T01:17:29.794Z,17.75
2023-03-25T01:20:31.922Z,17.75
2023-03-25T01:23:34.595Z,17.75
2023-03-25T01:26:37.380Z,17.69
2023-03-25T01:29:39.559Z,17.69
2023-03-25T01:32:41.640Z,17.69
2023-03-25T01:35:44.549Z,17.69
2023-03-25T01:38:47.977Z,17.69
2023-03-25T01:41:51.424Z,17.69
2023-03-25T01:44:53.702Z,17.63
2023-03-25T01:48:11.230Z,17.69
2023-03-25T01:51:17.529Z,17.69
2023-03-25T01:54:20.556Z,17.63
2023-03-25T01:57:24.226Z,17.63
2023-03-25T02:00:26.668Z,17.63
2023-03-25T02:03:30.880Z,17.63
2023-03-25T02:06:44.039Z,17.63
2023-03-25T02:09:46.296Z,17.56
2023-03-25T02:12:48.384Z,17.63
2023-03-25T02:16:18.739Z,17.56
2023-03-25T02:19:40.862Z,17.56
2023-03-25T02:22:50.583Z,17.56
2023-03-25T02:26:24.923Z,17.56
2023-03-25T02:29:58.937Z,17.50
2023-03-25T02:33:23.878Z,17.56
2023-03-25T02:36:41.403Z,17.50
2023-03-25T02:39:53.601Z,17.50
2023-03-25T02:43:05.969Z,17.50
2023-03-25T02:46:12.740Z,17.50
2023-03-25T02:49:27.255Z,17.56
2023-03-25T02:52:34.444Z,17.44
2023-03-25T02:55:37.575Z,17.50
2023-03-25T02:58:40.663Z,17.50
2023-03-25T03:01:44.347Z,17.50
2023-03-25T03:04:48.936Z,17.44
2023-03-25T03:07:59.153Z,17.44
2023-03-25T03:11:27.961Z,17.44
2023-03-25T03:14:32.579Z,17.44
2023-03-25T03:17:46.186Z,17.44
2023-03-25T03:21:00.580Z,17.38
2023-03-25T03:24:05.929Z,17.44
2023-03-25T03:27:14.812Z,17.44
2023-03-25T03:30:22.752Z,17.38
2023-03-25T03:33:32.077Z,17.38
2023-03-25T03:36:39.540Z,17.38
2023-03-25T03:39:43.653Z,17.38
2023-03-25T03:42:50.153Z,17.38
2023-03-25T03:45:56.561Z,17.38
2023-03-25T03:49:00.476Z,17.38
2023-03-25T03:52:25.485Z,17.38
2023-03-25T03:55:49.682Z,17.31
2023-03-25T03:58:54.479Z,17.38
2023-03-25T04:02:01.243Z,17.31
2023-03-25T04:05:03.440Z,17.25
2023-03-25T04:08:13.734Z,17.31
2023-03-25T04:11:22.548Z,17.31
2023-03-25T04:14:25.416Z,17.31
2023-03-25T04:17:30.018Z,17.25
2023-03-25T04:20:36.582Z,17.25
2023-03-25T04:23:41.129Z,17.25
2023-03-25T04:26:43.656Z,17.25
2023-03-25T04:29:47.631Z,17.25
2023-03-25T04:32:51.473Z,17.25
2023-03-25T04:35:53.885Z,17.25
2023-03-25T04:38:56.754Z,17.25
2023-03-25T04:42:03.245Z,17.25
2023-03-25T04:45:06.267Z,17.25
2023-03-25T04:48:20.605Z,17.19
2023-03-25T04:51:23.360Z,17.25
2023-03-25T04:54:25.859Z,17.19
2023-03-25T04:57:27.981Z,17.19
2023-03-25T05:00:30.241Z,17.25
2023-03-25T05:03:39.852Z,17.25
2023-03-25T05:06:44.653Z,17.19
2023-03-25T05:09:46.641Z,17.19
2023-03-25T05:12:48.999Z,17.19
2023-03-25T05:15:51.256Z,17.19
2023-03-25T05:18:53.594Z,17.19
2023-03-25T05:21:56.224Z,17.13
2023-03-25T05:24:58.673Z,17.19
2023-03-25T05:28:05.819Z,17.13
2023-03-25T05:31:11.092Z,17.13
2023-03-25T05:34:14.709Z,17.13
2023-03-25T05:37:17.632Z,17.13
2023-03-25T05:40:19.662Z,17.13
2023-03-25T05:43:23.118Z,17.13
2023-03-25T05:46:25.359Z,17.13
2023-03-25T05:49:28.315Z,17.13
2023-03-25T05:52:30.374Z,17.13
2023-03-25T05:55:32.583Z,17.31
2023-03-25T05:58:35.179Z,17.31
2023-03-25T06:01:37.892Z,17.44
2023-03-25T06:04:41.371Z,17.44
2023-03-25T06:07:45.974Z,17.63
2023-03-25T06:10:48.307Z,17.75
2023-03-25T06:13:50.553Z,17.88
2023-03-25T06:16:52.610Z,17.88
2023-03-25T06:19:54.810Z,17.88
2023-03-25T06:22:56.930Z,18.13
2023-03-25T06:25:59.150Z,18.25
2023-03-25T06:29:02.503Z,18.25
2023-03-25T06:32:05.519Z,18.25
2023-03-25T06:35:09.928Z,18.25
2023-03-25T06:38:12.010Z,18.19
2023-03-25T06:41:14.845Z,18.25
2023-03-25T06:44:16.900Z,18.19
2023-03-25T06:47:26.844Z,18.19
2023-03-25T06:50:29.010Z,18.25
2023-03-25T06:53:31.683Z,18.25
2023-03-25T06:56:33.879Z,18.31
2023-03-25T06:59:36.046Z,18.44
2023-03-25T07:02:38.801Z,18.56
2023-03-25T07:05:42.700Z,18.63
2023-03-25T07:08:44.966Z,18.63
2023-03-25T07:11:47.030Z,18.63
2023-03-25T07:14:55.917Z,18.63
2023-03-25T07:17:58.077Z,18.63
2023-03-25T07:21:01.136Z,18.63
2023-03-25T07:24:03.311Z,18.56
2023-03-25T07:27:05.470Z,18.63
2023-03-25T07:30:08.111Z,18.63
2023-03-25T07:33:10.160Z,18.63
2023-03-25T07:36:14.184Z,18.69
2023-03-25T07:39:16.390Z,18.81
2023-03-25T07:42:18.582Z,18.88
2023-03-25T07:45:20.782Z,18.94
2023-03-25T07:48:22.806Z,19.13
2023-03-25T07:51:25.281Z,19.19
2023-03-25T07:54:28.478Z,19.25
2023-03-25T07:57:30.541Z,19.31
2023-03-25T08:00:32.611Z,19.38
2023-03-25T08:03:35.190Z,19.38
2023-03-25T08:06:37.710Z,19.31
2023-03-25T08:09:41.053Z,19.38
2023-03-25T08:12:44.163Z,19.56
2023-03-25T08:15:46.483Z,19.81
2023-03-25T08:18:52.816Z,20.06
2023-03-25T08:21:54.837Z,20.00
2023-03-25T08:24:56.887Z,20.13
2023-03-25T08:27:58.980Z,20.06
2023-03-25T08:31:05.333Z,20.06
2023-03-25T08:34:07.501Z,20.25
2023-03-25T08:37:09.884Z,20.19
2023-03-25T08:40:12.065Z,20.13
2023-03-25T08:43:14.076Z,20.19
2023-03-25T08:46:16.307Z,20.19
2023-03-25T08:49:18.548Z,20.19
2023-03-25T08:52:20.811Z,20.19
2023-03-25T08:55:23.459Z,20.19
2023-03-25T08:58:26.627Z,20.25
2023-03-25T09:01:29.283Z,20.19
2023-03-25T09:04:31.529Z,20.06
2023-03-25T09:07:33.916Z,20.19
2023-03-25T09:10:37.644Z,20.19
2023-03-25T09:13:40.267Z,20.19
2023-03-25T09:16:42.361Z,20.19
2023-03-25T09:19:44.504Z,20.19
2023-03-25T09:22:46.603Z,20.19
2023-03-25T09:25:48.825Z,20.19
2023-03-25T09:28:51.019Z,20.19
2023-03-25T09:31:53.123Z,20.19
2023-03-25T09:34:55.153Z,20.25
2023-03-25T09:37:57.560Z,20.25
2023-03-25T09:41:02.456Z,20.31
2023-03-25T09:44:04.456Z,20.31
2023-03-25T09:47:15.049Z,20.38
2023-03-25T09:50:19.123Z,20.38
2023-03-25T09:53:33.331Z,20.44
2023-03-25T09:56:42.051Z,20.38
2023-03-25T09:59:56.318Z,20.38
2023-03-25T10:03:14.200Z,20.38
2023-03-25T10:06:20.720Z,20.31
2023-03-25T10:09:47.658Z,20.25
2023-03-25T10:13:13.543Z,20.25
2023-03-25T10:17:05.017Z,20.44
2023-03-25T10:20:36.262Z,20.50
2023-03-25T10:23:43.818Z,20.56
2023-03-25T10:26:52.571Z,20.56
2023-03-25T10:29:59.100Z,20.63
2023-03-25T10:33:12.663Z,20.75
2023-03-25T10:36:19.164Z,20.75
2023-03-25T10:39:22.485Z,20.81
2023-03-25T10:42:38.730Z,20.75
2023-03-25T10:45:43.039Z,20.69
2023-03-25T10:48:46.862Z,20.63
2023-03-25T10:51:54.669Z,20.69
2023-03-25T10:54:58.508Z,20.75
2023-03-25T10:58:01.613Z,20.94
2023-03-25T11:01:12.211Z,21.13
2023-03-25T11:04:17.672Z,21.19
2023-03-25T11:07:41.650Z,21.19
2023-03-25T11:10:48.818Z,21.19
2023-03-25T11:13:57.282Z,21.06
2023-03-25T11:17:09.201Z,21.06
2023-03-25T11:20:20.176Z,21.06
2023-03-25T11:23:36.631Z,21.06
2023-03-25T11:26:41.128Z,21.13
2023-03-25T11:29:52.109Z,21.13
2023-03-25T11:33:05.202Z,21.00
2023-03-25T11:36:11.681Z,21.19
2023-03-25T11:39:26.494Z,21.13
2023-03-25T11:42:37.872Z,21.25
2023-03-25T11:45:40.036Z,21.19
2023-03-25T11:48:43.910Z,21.19
2023-03-25T11:51:46.489Z,21.19
2023-03-25T11:54:49.050Z,21.13
2023-03-25T11:57:52.304Z,21.13
2023-03-25T12:01:05.693Z,21.06
2023-03-25T12:04:28.558Z,21.06
2023-03-25T12:07:41.041Z,21.06
2023-03-25T12:11:07.774Z,21.19
2023-03-25T12:14:20.030Z,21.06
2023-03-25T12:17:41.886Z,21.19
2023-03-25T12:21:10.955Z,21.31
2023-03-25T12:24:46.991Z,21.31
2023-03-25T12:28:07.663Z,21.31
2023-03-25T12:31:26.633Z,21.44
2023-03-25T12:35:10.647Z,21.50
2023-03-25T12:38:36.300Z,21.63
2023-03-25T12:42:06.562Z,21.69
2023-03-25T12:45:44.188Z,21.69
2023-03-25T12:49:11.041Z,21.63
2023-03-25T12:52:36.334Z,21.31
2023-03-25T12:56:20.512Z,21.19
2023-03-25T12:59:33.780Z,21.06
2023-03-25T13:03:02.617Z,21.00
2023-03-25T13:06:31.266Z,21.06
2023-03-25T13:09:49.185Z,20.94
2023-03-25T13:12:57.820Z,21.19
2023-03-25T13:16:07.685Z,21.50
2023-03-25T13:19:23.985Z,21.50
2023-03-25T13:22:36.284Z,21.69
2023-03-25T13:26:11.737Z,21.63
2023-03-25T13:29:34.374Z,21.56
2023-03-25T13:32:48.158Z,21.63
2023-03-25T13:35:54.932Z,21.81
2023-03-25T13:39:00.768Z,21.88
2023-03-25T13:42:13.313Z,21.94
2023-03-25T13:45:19.359Z,21.88
2023-03-25T13:48:39.012Z,21.88
2023-03-25T13:51:41.119Z,21.63
2023-03-25T13:55:12.155Z,21.38
2023-03-25T13:58:24.569Z,21.25
2023-03-25T14:01:35.692Z,21.19
2023-03-25T14:05:05.249Z,21.00
2023-03-25T14:08:27.201Z,20.94
2023-03-25T14:11:57.761Z,20.94
2023-03-25T14:15:05.593Z,20.88
2023-03-25T14:18:16.962Z,20.94
2023-03-25T14:21:25.217Z,20.81
2023-03-25T14:24:34.991Z,20.69
2023-03-25T14:27:37.537Z,20.75
2023-03-25T14:30:40.063Z,21.00
2023-03-25T14:34:00.769Z,21.06
2023-03-25T14:37:08.771Z,21.00
2023-03-25T14:40:47.390Z,20.88
2023-03-25T14:44:18.397Z,20.94
2023-03-25T14:47:20.774Z,20.88
2023-03-25T14:50:23.401Z,20.88
2023-03-25T14:53:27.353Z,20.75
2023-03-25T14:56:38.501Z,20.94
2023-03-25T14:59:43.342Z,21.13
2023-03-25T15:02:52.493Z,21.25
2023-03-25T15:05:59.494Z,21.31
2023-03-25T15:09:09.613Z,21.44
2023-03-25T15:12:16.578Z,21.44
2023-03-25T15:15:54.762Z,21.44
2023-03-25T15:18:58.565Z,21.25
2023-03-25T15:22:01.034Z,21.25
2023-03-25T15:25:19.849Z,21.25
2023-03-25T15:28:39.941Z,21.25
2023-03-25T15:32:00.033Z,21.25
2023-03-25T15:35:35.722Z,21.13
2023-03-25T15:38:51.384Z,21.13
2023-03-25T15:42:18.309Z,21.06
2023-03-25T15:45:41.939Z,21.00
2023-03-25T15:48:59.410Z,20.88
2023-03-25T15:52:10.115Z,20.88
2023-03-25T15:55:21.149Z,20.81
2023-03-25T15:58:39.886Z,20.75
2023-03-25T16:01:43.937Z,20.75
2023-03-25T16:04:48.273Z,20.69
2023-03-25T16:07:50.698Z,20.69
2023-03-25T16:10:53.089Z,20.75
2023-03-25T16:14:23.449Z,20.63
2023-03-25T16:17:33.013Z,20.56
2023-03-25T16:20:36.398Z,20.50
2023-03-25T16:23:39.622Z,20.44
2023-03-25T16:26:47.981Z,20.38
2023-03-25T16:29:52.888Z,20.25
2023-03-25T16:33:07.789Z,20.25
2023-03-25T16:36:15.865Z,20.19
2023-03-25T16:39:19.113Z,20.13
2023-03-25T16:42:35.362Z,20.13
2023-03-25T16:45:38.160Z,20.13
2023-03-25T16:48:42.932Z,20.06
2023-03-25T16:51:46.289Z,20.00
2023-03-25T16:54:51.059Z,20.00
2023-03-25T16:57:53.233Z,20.00
2023-03-25T17:00:56.669Z,20.00
2023-03-25T17:04:22.822Z,20.00
2023-03-25T17:07:27.609Z,19.88
2023-03-25T17:10:32.394Z,19.88
2023-03-25T17:13:50.632Z,19.88
2023-03-25T17:16:53.398Z,19.88
2023-03-25T17:20:00.813Z,19.88
2023-03-25T17:23:08.389Z,19.81
2023-03-25T17:26:13.214Z,19.81
2023-03-25T17:29:15.759Z,19.81
2023-03-25T17:32:18.639Z,19.75
2023-03-25T17:35:29.510Z,19.75
2023-03-25T17:38:38.369Z,19.69
2023-03-25T17:41:40.699Z,19.69
2023-03-25T17:44:45.291Z,19.69
2023-03-25T17:47:47.449Z,19.69
2023-03-25T17:50:52.113Z,19.63
2023-03-25T17:53:54.680Z,19.63
2023-03-25T17:56:57.183Z,19.63
2023-03-25T17:59:59.254Z,19.56
2023-03-25T18:03:01.580Z,19.56
2023-03-25T18:06:05.219Z,19.50
2023-03-25T18:09:20.279Z,19.50
2023-03-25T18:12:22.317Z,19.50
2023-03-25T18:15:24.930Z,19.44
2023-03-25T18:18:27.445Z,19.44
2023-03-25T18:21:29.494Z,19.44
2023-03-25T18:24:33.724Z,19.38
2023-03-25T18:27:43.056Z,19.38
2023-03-25T18:30:52.266Z,19.38
2023-03-25T18:33:56.275Z,19.31
2023-03-25T18:36:58.374Z,19.31
2023-03-25T18:40:00.704Z,19.31
2023-03-25T18:43:04.179Z,19.31
2023-03-25T18:46:06.368Z,19.25
2023-03-25T18:49:14.751Z,19.31
2023-03-25T18:52:16.769Z,19.25
2023-03-25T18:55:19.099Z,19.25
2023-03-25T18:58:23.779Z,19.25
2023-03-25T19:01:26.576Z,19.25
2023-03-25T19:04:29.483Z,19.19
2023-03-25T19:07:31.857Z,19.19
2023-03-25T19:10:35.072Z,19.19
2023-03-25T19:13:37.070Z,19.19
2023-03-25T19:16:39.094Z,19.19
2023-03-25T19:19:41.172Z,19.19
2023-03-25T19:22:43.379Z,19.13
2023-03-25T19:25:47.121Z,19.13
2023-03-25T19:28:49.141Z,19.13
2023-03-25T19:31:51.239Z,19.13
2023-03-25T19:34:56.705Z,19.13
2023-03-25T19:38:03.186Z,19.13
2023-03-25T19:41:10.803Z,19.06
2023-03-25T19:44:14.343Z,19.06
2023-03-25T19:47:16.443Z,19.06
2023-03-25T19:50:24.604Z,19.06
2023-03-25T19:53:27.684Z,19.06
2023-03-25T19:56:29.917Z,19.00
2023-03-25T19:59:32.132Z,19.00
2023-03-25T20:02:34.472Z,18.94
2023-03-25T20:05:37.041Z,18.94
2023-03-25T20:08:39.382Z,18.94
2023-03-25T20:11:41.549Z,18.94
2023-03-25T20:14:43.593Z,18.94
2023-03-25T20:17:45.666Z,19.00
2023-03-25T20:20:48.043Z,19.00
2023-03-25T20:23:50.202Z,19.00
2023-03-25T20:26:52.340Z,19.00
2023-03-25T20:29:54.508Z,19.00
2023-03-25T20:32:58.227Z,18.94
2023-03-25T20:36:00.263Z,18.88
2023-03-25T20:39:05.555Z,18.88
2023-03-25T20:42:07.746Z,18.88
2023-03-25T20:45:12.270Z,18.88
2023-03-25T20:48:14.627Z,18.88
2023-03-25T20:51:16.758Z,18.88
2023-03-25T20:54:18.867Z,18.88
2023-03-25T20:57:21.063Z,18.88
2023-03-25T21:00:23.163Z,18.88
2023-03-25T21:03:26.405Z,18.88
2023-03-25T21:06:29.004Z,18.81
2023-03-25T21:09:31.577Z,18.81
2023-03-25T21:12:43.266Z,18.81
2023-03-25T21:15:46.959Z,18.75
2023-03-25T21:18:50.167Z,18.81
2023-03-25T21:21:52.192Z,18.75
2023-03-25T21:24:54.211Z,18.75
2023-03-25T21:27:56.248Z,18.81
2023-03-25T21:31:15.392Z,18.75
2023-03-25T21:34:17.436Z,18.69
2023-03-25T21:37:19.691Z,18.69
2023-03-25T21:40:22.492Z,18.75
2023-03-25T21:43:24.885Z,18.69
2023-03-25T21:46:27.351Z,18.69
2023-03-25T21:49:29.970Z,18.69
2023-03-25T21:52:32.022Z,18.69
2023-03-25T21:55:34.197Z,18.69
2023-03-25T21:58:36.638Z,18.69
2023-03-25T22:01:42.502Z,18.69
2023-03-25T22:04:44.560Z,18.69
2023-03-25T22:07:46.601Z,18.69
2023-03-25T22:10:48.620Z,18.63
2023-03-25T22:13:51.845Z,18.63
2023-03-25T22:16:53.926Z,18.63
2023-03-25T22:19:56.070Z,18.63
2023-03-25T22:22:58.236Z,18.56
2023-03-25T22:26:00.286Z,18.63
2023-03-25T22:29:04.553Z,18.63
2023-03-25T22:32:06.827Z,18.56
2023-03-25T22:35:13.932Z,18.56
2023-03-25T22:38:16.037Z,18.56
2023-03-25T22:41:18.793Z,18.56
2023-03-25T22:44:21.221Z,18.56
2023-03-25T22:47:23.312Z,18.56
2023-03-25T22:50:25.363Z,18.56
2023-03-25T22:53:28.014Z,18.56
2023-03-25T22:56:33.683Z,18.56
2023-03-25T22:59:35.908Z,18.50
2023-03-25T23:02:38.302Z,18.50
2023-03-25T23:05:41.079Z,18.50
2023-03-25T23:08:43.407Z,18.50
2023-03-25T23:11:46.231Z,18.50
2023-03-25T23:14:56.348Z,18.44
2023-03-25T23:17:58.371Z,18.50
2023-03-25T23:21:01.196Z,18.50
2023-03-25T23:24:04.458Z,18.44
2023-03-25T23:27:08.607Z,18.38
2023-03-25T23:30:11.589Z,18.44
2023-03-25T23:33:13.676Z,18.44
2023-03-25T23:36:18.625Z,18.44
2023-03-25T23:39:24.071Z,18.38
2023-03-25T23:42:35.177Z,18.38
2023-03-25T23:45:37.907Z,18.38
2023-03-25T23:48:40.700Z,18.31
2023-03-25T23:51:43.522Z,18.31
2023-03-25T23:54:47.343Z,18.31
2023-03-25T23:57:49.421Z,18.31
